Panorama Heights, New Mexico
Current Conditions -  °F | °C
As of 7:47 PM on Tuesday 21 Oct 2014 (Local Time) from KAEG Reporting Station
Clear Clear  
Wind Chill: 54°   Ceiling: Unl
Heat Index: 54°   Visibility: 10mi
Dew Point: 45°   Wind: 8mph
Humidity: 72%   Direction: 190°S
Pressure: 30.1"   Gusts: NA
Location:  35.2385°N, 106.668°W
Report Text: KAEG 220147Z 19007KT 10SM SKC 12/07 A3010
Loading
Personal Weather Stations






























Interactive Weather Map
Tropical Storm Tracking
New forecast layout! Learn more

10-Day Weather Forecast

Advertisements
Track Severe Weather on mobile